createdAt,value
2023-12-22T00:03:27.732Z,93758.59
2023-12-22T00:07:12.135Z,93779.47
2023-12-22T00:10:55.120Z,93789.03
2023-12-22T00:14:38.557Z,93814.78
2023-12-22T00:18:21.503Z,93927.75
2023-12-22T00:22:04.811Z,93888.84
2023-12-22T00:25:49.150Z,93881.84
2023-12-22T00:29:32.074Z,93917.03
2023-12-22T00:33:15.044Z,93894.50
2023-12-22T00:36:57.888Z,93884.38
2023-12-22T00:40:40.806Z,93893.19
2023-12-22T00:44:26.635Z,93891.59
2023-12-22T00:48:09.773Z,93892.84
2023-12-22T00:51:52.688Z,93926.69
2023-12-22T00:55:35.528Z,93925.16
2023-12-22T00:59:18.566Z,93914.25
2023-12-22T01:03:02.814Z,93922.75
2023-12-22T01:06:45.743Z,93920.53
2023-12-22T01:10:28.738Z,93923.38
2023-12-22T01:14:12.169Z,93929.25
2023-12-22T01:17:55.064Z,93930.06
2023-12-22T01:21:39.342Z,93934.69
2023-12-22T01:25:22.227Z,93934.13
2023-12-22T01:29:05.753Z,93942.34
2023-12-22T01:32:48.686Z,93948.44
2023-12-22T01:36:31.835Z,93945.16
2023-12-22T01:40:16.162Z,93970.25
2023-12-22T01:43:59.142Z,93961.59
2023-12-22T01:47:42.107Z,93961.00
2023-12-22T01:51:25.027Z,93948.88
2023-12-22T01:55:09.081Z,93946.91
2023-12-22T01:58:55.386Z,93942.44
2023-12-22T02:02:39.434Z,93932.09
2023-12-22T02:06:22.927Z,93939.50
2023-12-22T02:10:06.250Z,93932.09
2023-12-22T02:13:49.269Z,93941.88
2023-12-22T02:17:39.188Z,93978.84
2023-12-22T02:21:22.203Z,93960.81
2023-12-22T02:25:06.890Z,93965.47
2023-12-22T02:28:49.972Z,93942.69
2023-12-22T02:32:37.923Z,93936.91
2023-12-22T02:36:21.539Z,93921.56
2023-12-22T02:40:07.150Z,93926.09
2023-12-22T02:43:50.446Z,93927.78
2023-12-22T02:47:34.503Z,93937.25
2023-12-22T02:51:17.403Z,93931.91
2023-12-22T02:55:00.526Z,93897.00
2023-12-22T02:58:44.839Z,93909.56
2023-12-22T03:02:27.820Z,93903.03
2023-12-22T03:06:10.675Z,93906.56
2023-12-22T03:09:53.549Z,93881.53
2023-12-22T03:13:36.423Z,93896.03
2023-12-22T03:17:20.724Z,93873.47
2023-12-22T03:21:03.605Z,93862.81
2023-12-22T03:24:46.511Z,93872.44
2023-12-22T03:28:29.523Z,93878.16
2023-12-22T03:32:12.420Z,93875.78
2023-12-22T03:35:56.575Z,93868.63
2023-12-22T03:39:39.408Z,93880.72
2023-12-22T03:43:22.283Z,93868.41
2023-12-22T03:47:05.448Z,93852.91
2023-12-22T03:50:48.255Z,93858.22
2023-12-22T03:54:32.473Z,93854.72
2023-12-22T03:58:15.401Z,93846.78
2023-12-22T04:02:02.114Z,93860.09
2023-12-22T04:05:45.023Z,93853.41
2023-12-22T04:09:27.904Z,93878.66
2023-12-22T04:13:12.160Z,93889.31
2023-12-22T04:16:55.057Z,93878.00
2023-12-22T04:20:37.924Z,93876.44
2023-12-22T04:24:20.792Z,93882.44
2023-12-22T04:28:03.657Z,93879.25
2023-12-22T04:31:47.872Z,93887.06
2023-12-22T04:35:30.799Z,93875.47
2023-12-22T04:39:13.752Z,93865.50
2023-12-22T04:42:56.606Z,93878.53
2023-12-22T04:46:39.543Z,93860.31
2023-12-22T04:50:23.949Z,93878.91
2023-12-22T04:54:06.860Z,93878.91
2023-12-22T04:57:49.960Z,93875.91
2023-12-22T05:01:33.015Z,93881.91
2023-12-22T05:05:16.045Z,93872.91
2023-12-22T05:09:00.337Z,93889.31
2023-12-22T05:12:43.214Z,93873.28
2023-12-22T05:16:26.364Z,93867.28
2023-12-22T05:20:10.887Z,93891.31
2023-12-22T05:23:53.840Z,93915.78
2023-12-22T05:27:38.112Z,93913.97
2023-12-22T05:31:21.552Z,93912.38
2023-12-22T05:35:04.720Z,93897.72
2023-12-22T05:38:49.002Z,93915.75
2023-12-22T05:42:31.844Z,93908.94
2023-12-22T05:46:16.057Z,93923.75
2023-12-22T05:49:59.019Z,93933.56
2023-12-22T05:53:42.401Z,93942.19
2023-12-22T05:57:27.285Z,93921.75
2023-12-22T06:01:10.311Z,93961.13
2023-12-22T06:04:54.745Z,93961.28
2023-12-22T06:08:37.718Z,93961.88
2023-12-22T06:12:20.715Z,93967.66
2023-12-22T06:16:03.574Z,93957.06
2023-12-22T06:19:46.452Z,93969.66
2023-12-22T06:23:34.252Z,93960.03
2023-12-22T06:27:17.991Z,93977.44
2023-12-22T06:31:00.878Z,93974.88
2023-12-22T06:34:43.873Z,93953.66
2023-12-22T06:38:26.771Z,93965.91
2023-12-22T06:42:13.359Z,93956.91
2023-12-22T06:45:56.555Z,93975.38
2023-12-22T06:49:39.747Z,93993.84
2023-12-22T06:53:26.166Z,93979.81
2023-12-22T06:57:12.140Z,93963.63
2023-12-22T07:00:55.217Z,93972.63
2023-12-22T07:05:07.963Z,93980.63
2023-12-22T07:09:30.697Z,93999.06
2023-12-22T07:13:14.902Z,93982.66
2023-12-22T07:16:59.298Z,93987.06
2023-12-22T07:20:42.429Z,94012.13
2023-12-22T07:24:25.465Z,94008.31
2023-12-22T07:28:08.796Z,94045.53
2023-12-22T07:31:53.533Z,94049.09
2023-12-22T07:35:36.858Z,94038.03
2023-12-22T07:39:20.391Z,94056.88
2023-12-22T07:43:04.922Z,94058.66
2023-12-22T07:50:34.291Z,94060.31
2023-12-22T07:54:18.303Z,94111.63
2023-12-22T07:58:01.295Z,94042.72
2023-12-22T08:01:44.331Z,94050.19
2023-12-22T08:05:27.642Z,94095.28
2023-12-22T08:09:11.857Z,94134.16
2023-12-22T08:12:54.784Z,94141.75
2023-12-22T08:16:37.675Z,94134.72
2023-12-22T08:20:22.936Z,94155.50
2023-12-22T08:24:19.527Z,94159.13
2023-12-22T08:28:06.570Z,94155.03
2023-12-22T08:31:49.953Z,94152.94
2023-12-22T08:35:33.028Z,94151.56
2023-12-22T08:39:17.472Z,94141.59
2023-12-22T08:43:01.879Z,94178.69
2023-12-22T08:46:45.086Z,94161.41
2023-12-22T08:50:27.996Z,94159.91
2023-12-22T08:54:10.844Z,94149.94
2023-12-22T08:58:00.029Z,94136.75
2023-12-22T09:01:46.102Z,94172.44
2023-12-22T09:05:29.178Z,94177.66
2023-12-22T09:09:12.102Z,94177.28
2023-12-22T09:12:56.310Z,94180.19
2023-12-22T09:16:39.848Z,94171.78
2023-12-22T09:20:22.929Z,94181.38
2023-12-22T09:24:06.451Z,94156.59
2023-12-22T09:27:49.561Z,94133.34
2023-12-22T09:31:34.441Z,94128.75
2023-12-22T09:35:17.522Z,94143.78
2023-12-22T09:39:00.495Z,94182.06
2023-12-22T09:42:44.905Z,94138.38
2023-12-22T09:46:27.940Z,94142.19
2023-12-22T09:50:12.551Z,94159.84
2023-12-22T09:53:56.388Z,94222.75
2023-12-22T09:57:40.482Z,94171.44
2023-12-22T10:01:24.806Z,94167.03
2023-12-22T10:05:08.642Z,94164.31
2023-12-22T10:08:53.267Z,94153.59
2023-12-22T10:12:36.605Z,94172.69
2023-12-22T10:16:19.629Z,94154.81
2023-12-22T10:20:02.594Z,94175.03
2023-12-22T10:23:45.743Z,94172.09
2023-12-22T10:27:32.932Z,94157.19
2023-12-22T10:31:15.887Z,94152.41
2023-12-22T10:34:59.390Z,94133.69
2023-12-22T10:38:44.366Z,94128.34
2023-12-22T10:42:28.176Z,94126.53
2023-12-22T10:46:14.249Z,94115.00
2023-12-22T10:49:57.269Z,94091.94
2023-12-22T10:53:43.056Z,94098.44
2023-12-22T10:57:26.153Z,94137.53
2023-12-22T11:01:09.721Z,94097.06
2023-12-22T11:04:59.254Z,94130.78
2023-12-22T11:08:42.467Z,94099.16
2023-12-22T11:12:26.889Z,94101.16
2023-12-22T11:16:10.034Z,94103.56
2023-12-22T11:19:56.171Z,94087.13
2023-12-22T11:23:40.788Z,94136.19
2023-12-22T11:27:23.808Z,94097.97
2023-12-22T11:31:06.857Z,94121.63
2023-12-22T11:34:51.196Z,94097.59
2023-12-22T11:38:35.476Z,94109.22
2023-12-22T11:42:21.028Z,94138.03
2023-12-22T11:46:04.263Z,94098.41
2023-12-22T11:49:47.791Z,94091.59
2023-12-22T11:53:33.963Z,94089.16
2023-12-22T11:57:39.841Z,94107.19
2023-12-22T12:01:24.436Z,94097.56
2023-12-22T12:05:09.611Z,94084.75
2023-12-22T12:08:53.030Z,94114.22
2023-12-22T12:12:37.779Z,94133.25
2023-12-22T12:16:22.695Z,94091.03
2023-12-22T12:20:08.559Z,94094.06
2023-12-22T12:23:51.863Z,94086.66
2023-12-22T12:27:35.768Z,94085.84
2023-12-22T12:31:20.100Z,94074.22
2023-12-22T12:35:04.200Z,94058.41
2023-12-22T12:38:54.976Z,94057.59
2023-12-22T12:42:38.979Z,94060.81
2023-12-22T12:46:23.329Z,94041.97
2023-12-22T12:50:06.890Z,94037.16
2023-12-22T12:53:49.857Z,94022.72
2023-12-22T12:57:32.742Z,94045.19
2023-12-22T13:01:25.779Z,94025.13
2023-12-22T13:05:23.935Z,94020.72
2023-12-22T13:09:07.035Z,94010.31
2023-12-22T13:12:50.257Z,93975.44
2023-12-22T13:16:33.507Z,93998.50
2023-12-22T13:20:17.052Z,93983.88
2023-12-22T13:24:15.345Z,93995.50
2023-12-22T13:27:59.472Z,93985.47
2023-12-22T13:31:44.269Z,93967.84
2023-12-22T13:35:27.912Z,93963.25
2023-12-22T13:39:13.607Z,93960.22
2023-12-22T13:42:57.191Z,93993.09
2023-12-22T13:46:42.327Z,93925.38
2023-12-22T13:50:25.428Z,93908.72
2023-12-22T13:54:08.552Z,93906.72
2023-12-22T13:58:01.472Z,93935.16
2023-12-22T14:01:44.431Z,93920.13
2023-12-22T14:05:30.564Z,93906.88
2023-12-22T14:09:14.919Z,93921.50
2023-12-22T14:12:59.795Z,93916.91
2023-12-22T14:16:42.751Z,93911.84
2023-12-22T14:20:26.181Z,93949.16
2023-12-22T14:24:09.483Z,93970.00
2023-12-22T14:27:53.942Z,93985.84
2023-12-22T14:31:38.468Z,93928.88
2023-12-22T14:35:21.445Z,93928.69
2023-12-22T14:39:06.362Z,93920.06
2023-12-22T14:42:49.378Z,93945.31
2023-12-22T14:46:32.291Z,93921.25
2023-12-22T14:50:16.891Z,93929.28
2023-12-22T14:53:59.949Z,93954.13
2023-12-22T14:57:42.865Z,93925.03
2023-12-22T15:01:26.182Z,93969.78
2023-12-22T15:05:10.441Z,93968.56
2023-12-22T15:08:54.783Z,93962.97
2023-12-22T15:12:39.117Z,93952.53
2023-12-22T15:16:23.657Z,93954.34
2023-12-22T15:20:12.484Z,93960.34
2023-12-22T15:23:57.480Z,93960.34
2023-12-22T15:27:41.124Z,94025.31
2023-12-22T15:31:25.698Z,93936.84
2023-12-22T15:35:09.626Z,93945.66
2023-12-22T15:38:53.545Z,93967.13
2023-12-22T15:42:37.824Z,93991.38
2023-12-22T15:46:20.744Z,93994.59
2023-12-22T15:50:03.932Z,93978.53
2023-12-22T15:53:47.088Z,93994.78
2023-12-22T15:57:30.426Z,93989.56
2023-12-22T16:01:16.352Z,94027.06
2023-12-22T16:04:59.772Z,93991.72
2023-12-22T16:08:43.127Z,94031.44
2023-12-22T16:12:26.264Z,94013.78
2023-12-22T16:16:11.992Z,94027.44
2023-12-22T16:19:56.425Z,94024.81
2023-12-22T16:23:39.379Z,94038.25
2023-12-22T16:27:22.428Z,94021.81
2023-12-22T16:31:05.723Z,94026.63
2023-12-22T16:34:48.922Z,94037.03
2023-12-22T16:38:33.459Z,94048.25
2023-12-22T16:42:16.486Z,94041.38
2023-12-22T16:45:59.397Z,94059.84
2023-12-22T16:49:43.850Z,94062.25
2023-12-22T16:53:28.005Z,94058.63
2023-12-22T16:57:12.440Z,94051.59
2023-12-22T17:01:14.851Z,94056.59
2023-12-22T17:04:58.564Z,94065.88
2023-12-22T17:08:42.864Z,94062.97
2023-12-22T17:12:27.325Z,94090.34
2023-12-22T17:16:11.326Z,94111.25
2023-12-22T17:19:55.045Z,94093.59
2023-12-22T17:23:37.980Z,94070.91
2023-12-22T17:27:20.911Z,94081.94
2023-12-22T17:31:07.155Z,94080.94
2023-12-22T17:34:50.067Z,94100.41
2023-12-22T17:38:32.997Z,94080.31
2023-12-22T17:42:15.940Z,94101.19
2023-12-22T17:45:58.897Z,94111.25
2023-12-22T17:49:43.123Z,94080.69
2023-12-22T17:53:27.253Z,94116.84
2023-12-22T17:57:13.606Z,94116.44
2023-12-22T18:00:56.556Z,94175.28
2023-12-22T18:04:39.865Z,94114.44
2023-12-22T18:08:24.267Z,94106.41
2023-12-22T18:12:07.955Z,94103.38
2023-12-22T18:15:50.854Z,94114.84
2023-12-22T18:19:34.943Z,94101.59
2023-12-22T18:23:20.804Z,94107.25
2023-12-22T18:27:05.691Z,94113.06
2023-12-22T18:30:48.731Z,94104.63
2023-12-22T18:34:31.694Z,94130.91
2023-12-22T18:38:14.701Z,94088.72
2023-12-22T18:41:57.728Z,94144.16
2023-12-22T18:45:42.253Z,94079.44
2023-12-22T18:49:25.234Z,94082.22
2023-12-22T18:53:09.922Z,94100.28
2023-12-22T18:56:53.029Z,94088.59
2023-12-22T19:00:35.960Z,94110.72
2023-12-22T19:04:20.586Z,94117.50
2023-12-22T19:08:03.780Z,94079.13
2023-12-22T19:11:47.696Z,94089.41
2023-12-22T19:15:30.743Z,94070.69
2023-12-22T19:19:14.093Z,94119.31
2023-12-22T19:22:58.670Z,94095.41
2023-12-22T19:26:42.602Z,94106.84
2023-12-22T19:30:25.584Z,94121.31
2023-12-22T19:34:08.727Z,94131.97
2023-12-22T19:37:51.975Z,94144.81
2023-12-22T19:41:36.429Z,94148.22
2023-12-22T19:45:19.636Z,94155.69
2023-12-22T19:49:04.459Z,94169.75
2023-12-22T19:52:47.522Z,94115.88
2023-12-22T19:56:30.452Z,94139.56
2023-12-22T20:00:16.034Z,94135.16
2023-12-22T20:03:59.939Z,94143.63
2023-12-22T20:07:43.164Z,94143.25
2023-12-22T20:11:28.358Z,94153.69
2023-12-22T20:15:12.342Z,94170.16
2023-12-22T20:18:59.233Z,94161.69
2023-12-22T20:22:42.360Z,94164.72
2023-12-22T20:26:25.253Z,94167.72
2023-12-22T20:30:09.661Z,94254.13
2023-12-22T20:33:53.130Z,94172.09
2023-12-22T20:37:38.583Z,94161.22
2023-12-22T20:41:23.880Z,94206.63
2023-12-22T20:45:08.163Z,94163.44
2023-12-22T20:48:51.219Z,94161.41
2023-12-22T20:52:35.077Z,94137.28
2023-12-22T20:56:20.721Z,94210.28
2023-12-22T21:00:04.577Z,94208.25
2023-12-22T21:03:47.479Z,94177.47
2023-12-22T21:07:30.903Z,94222.69
2023-12-22T21:11:14.067Z,94220.72
2023-12-22T21:14:58.733Z,94228.38
2023-12-22T21:18:41.721Z,94209.88
2023-12-22T21:22:24.673Z,94215.94
2023-12-22T21:26:07.626Z,94257.72
2023-12-22T21:29:50.568Z,94242.88
2023-12-22T21:33:34.910Z,94265.00
2023-12-22T21:37:20.728Z,94240.31
2023-12-22T21:41:04.054Z,94225.25
2023-12-22T21:44:46.966Z,94250.38
2023-12-22T21:48:29.995Z,94255.00
2023-12-22T21:52:14.435Z,94284.75
2023-12-22T21:55:57.603Z,94247.00
2023-12-22T21:59:40.597Z,94234.91
2023-12-22T22:03:24.031Z,94224.06
2023-12-22T22:07:07.060Z,94292.16
2023-12-22T22:10:52.604Z,94259.34
2023-12-22T22:14:35.712Z,94238.84
2023-12-22T22:18:18.865Z,94289.50
2023-12-22T22:22:01.958Z,94264.59
2023-12-22T22:25:45.080Z,94273.44
2023-12-22T22:29:29.394Z,94274.25
2023-12-22T22:33:12.699Z,94242.69
2023-12-22T22:36:55.689Z,94280.28
2023-12-22T22:40:38.668Z,94310.63
2023-12-22T22:44:21.672Z,94283.94
2023-12-22T22:48:06.861Z,94291.16
2023-12-22T22:51:49.922Z,94257.63
2023-12-22T22:55:32.806Z,94290.16
2023-12-22T22:59:16.495Z,94289.16
2023-12-22T23:03:00.370Z,94280.31
2023-12-22T23:06:44.683Z,94320.88
2023-12-22T23:10:28.015Z,94318.69
2023-12-22T23:14:10.983Z,94278.31
2023-12-22T23:17:54.781Z,94316.25
2023-12-22T23:21:37.936Z,94264.66
2023-12-22T23:25:23.249Z,94277.50
2023-12-22T23:29:06.222Z,94294.19
2023-12-22T23:32:49.300Z,94340.38
2023-12-22T23:36:32.315Z,94300.81
2023-12-22T23:40:15.504Z,94301.41
2023-12-22T23:43:59.828Z,94326.91
2023-12-22T23:47:42.875Z,94335.53
2023-12-22T23:51:26.031Z,94310.25
2023-12-22T23:55:09.920Z,94296.78
2023-12-22T23:58:52.977Z,94317.69
